This is the latest recevied weather packets stored in our database for station/object HA9OZD-19. If no packets are shown the sender has not sent any weather packets the latest 10 day(s).
| Time | Temp. | Humidity | Pressure | Rain* | Wind** | Luminosity | Snow |
|---|---|---|---|---|---|---|---|
| 1777370418 | 21.67° C | 19% | 1038.9 hPa | - | - | - | - |
| 1777366878 | 20.56° C | 22% | 1039.2 hPa | - | - | - | - |
| 1777363338 | 19.44° C | 26% | 1039.3 hPa | - | - | - | - |
| 1777359798 | 16.11° C | 39% | 1039.3 hPa | - | - | - | - |
| 1777356258 | 10° C | 58% | 1039.4 hPa | - | - | - | - |
| 1777352718 | 4.44° C | 64% | 1039.4 hPa | - | - | - | - |
| 1777349178 | 1.67° C | 60% | 1038.7 hPa | - | - | - | - |
| 1777345637 | 2.22° C | 58% | 1038.6 hPa | - | - | - | - |
| 1777342097 | 2.22° C | 58% | 1038.4 hPa | - | - | - | - |
| 1777338557 | 2.78° C | 55% | 1038.3 hPa | - | - | - | - |
| 1777335019 | 3.89° C | 52% | 1038.3 hPa | - | - | - | - |
| 1777331477 | 5° C | 49% | 1038.3 hPa | - | - | - | - |
| 1777327937 | 6.11° C | 46% | 1037.8 hPa | - | - | - | - |
| 1777324397 | 8.33° C | 40% | 1037.6 hPa | - | - | - | - |
| 1777320856 | 8.89° C | 38% | 1037.5 hPa | - | - | - | - |
| 1777317316 | 10.56° C | 32% | 1037.4 hPa | - | - | - | - |
| 1777313776 | 12.78° C | 28% | 1037.3 hPa | - | - | - | - |
| 1777310236 | 15° C | 25% | 1037.1 hPa | - | - | - | - |
| 1777306696 | 17.78° C | 22% | 1037.2 hPa | - | - | - | - |
| 1777303156 | 19.44° C | 20% | 1037.6 hPa | - | - | - | - |
| 1777299616 | 21.11° C | 19% | 1038.2 hPa | - | - | - | - |
| 1777292535 | 20.56° C | 19% | 1039.7 hPa | - | - | - | - |
| 1777288995 | 20.56° C | 20% | 1040.5 hPa | - | - | - | - |
| 1777285455 | 20° C | 20% | 1041 hPa | - | - | - | - |
| 1777284018 | 19.44° C | 21% | 1041.3 hPa | - | - | - | - |
* Rain since midnight (hover to see other rain measurements)
** Current wind speed in m/s (hover to see current wind gust speed)